• Join FlightAware (Why Join?)
  • Login
  • US Flag 
06:04AM EDT


 

Airport Tracker/Info


-or-


 

Live Flight TrackerFlight Track Log ✈ LXJ342 ✈ 01-May-2013 ✈ KTEB - KDAL

Flight Track Log - Related Links

Times and Time Zones

All times are in EDT time to prevent confusion due to time zone crossing. See the LXJ342 flight status page for this flight to view local times or setup timezone preferences in your user account.

Time Position Orientation Groundspeed Altitude Reporting Facility
EDT Latitude Longitude Course Direction KTS MPH feet Rate Location/Type
01:11PM 40.8833 -74.0333 339° North 182 209 2,000  Level New York TRACON
01:12PM 40.9167 -74.0500 339° North 223 257 2,200 1,020 Climbing New York TRACON
01:13PM 40.9000 -74.1333 255° West 242 278 4,000 2,220 Climbing New York TRACON
01:14PM 40.8833 -74.2333 258° West 275 316 6,700 2,640 Climbing New York TRACON
01:15PM 40.8500 -74.3333 246° West 298 343 9,300 2,520 Climbing New York TRACON
01:16PM 40.8333 -74.4500 259° West 324 373 11,800 2,400 Climbing New York TRACON
01:18PM 40.7711 -74.7031 252° West 343 395 17,000 1,860 Climbing New York Center
01:19PM 40.7422 -74.8219 252° West 368 423 17,900 1,140 Climbing New York Center
01:20PM 40.7078 -74.9706 253° West 385 443 19,400 1,380 Climbing New York Center
01:21PM 40.6675 -75.1075 249° West 396 456 20,700 1,320 Climbing New York Center
01:22PM 40.6103 -75.2406 241° Southwest 411 473 22,100 1,380 Climbing New York Center
01:23PM 40.5489 -75.3731 239° Southwest 422 486 23,500 1,200 Climbing New York Center
01:24PM 40.4875 -75.5056 239° Southwest 428 493 24,600 1,020 Climbing New York Center
01:25PM 40.4278 -75.6406 240° Southwest 433 498 25,600 900 Climbing New York Center
01:26PM 40.3636 -75.7775 238° Southwest 433 498 26,500 840 Climbing New York Center
01:27PM 40.3131 -75.8883 239° Southwest 438 504 27,300 960 Climbing New York Center
01:28PM 40.2375 -76.0406 237° Southwest 443 510 28,400 1,080 Climbing New York Center
01:29PM 40.1703 -76.1903 240° Southwest 443 510 29,500 1,020 Climbing New York Center
01:31PM 40.0544 -76.4397 239° Southwest 430 495 31,300 960 Climbing Washington Center
01:32PM 39.9908 -76.5692 237° Southwest 446 513 32,200 900 Climbing Washington Center
01:33PM 39.9231 -76.7169 239° Southwest 469 540 33,100 1,020 Climbing Washington Center
01:34PM 39.8486 -76.8753 239° Southwest 469 540 34,300 1,320 Climbing Washington Center
01:35PM 39.7803 -77.0144 237° Southwest 469 540 35,800 1,260 Climbing Washington Center
01:36PM 39.7139 -77.1561 239° Southwest 469 540 36,800 720 Climbing Washington Center
01:37PM 39.6475 -77.2975 239° Southwest 464 534 37,300 480 Climbing Washington Center
01:38PM 39.5786 -77.4411 238° Southwest 464 534 37,800 300 Climbing Washington Center
01:39PM 39.5117 -77.5847 239° Southwest 464 534 38,000 60 Climbing Washington Center
01:40PM 39.4425 -77.7306 238° Southwest 464 534 38,000  Level Washington Center
01:41PM 39.3731 -77.8817 239° Southwest 470 541 38,000  Level Washington Center
01:42PM 39.3117 -78.0325 242° Southwest 475 547 38,000  Level Washington Center
01:43PM 39.2503 -78.1833 242° Southwest 475 547 38,000  Level Washington Center
01:44PM 39.1928 -78.3339 244° Southwest 480 552 38,000  Level Washington Center
01:45PM 39.1328 -78.4869 243° Southwest 480 552 38,000  Level Washington Center
01:46PM 39.0708 -78.6317 241° Southwest 475 547 38,000  Level Washington Center
01:47PM 39.0131 -78.7786 243° Southwest 470 541 38,000  Level Washington Center
01:48PM 38.9547 -78.9258 243° Southwest 465 535 38,000  Level Washington Center
01:49PM 38.8944 -79.0697 242° Southwest 465 535 38,000  Level Washington Center
01:50PM 38.8378 -79.2189 244° Southwest 465 535 38,000  Level Washington Center
01:51PM 38.8100 -79.3800 258° West 459 528 38,000 60 Level Washington Center
01:52PM 38.7797 -79.5411 256° West 459 528 38,200 360 Climbing Washington Center
01:55PM 38.7100 -79.9147 257° West 448 516 39,400 480 Climbing Indianapolis Center
01:56PM 38.6761 -80.0978 257° West 441 507 40,000 240 Climbing Indianapolis Center
01:57PM 38.6475 -80.2486 256° West 436 502 40,000  Level Indianapolis Center
01:58PM 38.6183 -80.3989 256° West 434 499 40,000  Level Indianapolis Center
01:59PM 38.5914 -80.5461 257° West 428 493 40,000  Level Indianapolis Center
02:00PM 38.5622 -80.6947 256° West 431 496 40,000  Level Indianapolis Center
02:01PM 38.5344 -80.8419 256° West 427 491 40,000  Level Indianapolis Center
02:02PM 38.5053 -80.9894 256° West 428 493 40,000  Level Indianapolis Center
02:03PM 38.4758 -81.1350 256° West 423 487 40,000  Level Indianapolis Center
02:04PM 38.4411 -81.3114 256° West 423 487 40,000  Level Indianapolis Center
02:05PM 38.4117 -81.4581 256° West 422 486 40,000  Level Indianapolis Center
02:06PM 38.3828 -81.6050 256° West 423 487 40,000  Level Indianapolis Center
02:07PM 38.3539 -81.7497 256° West 420 483 40,000  Level Indianapolis Center
02:08PM 38.3161 -81.8903 251° West 420 483 40,000  Level Indianapolis Center
02:09PM 38.2778 -82.0300 251° West 416 479 40,000  Level Indianapolis Center
02:10PM 38.2386 -82.1667 250° West 411 473 40,000  Level Indianapolis Center
02:11PM 38.1992 -82.3031 250° West 411 473 40,000  Level Indianapolis Center
02:12PM 38.1600 -82.4403 250° West 411 473 40,000  Level Indianapolis Center
02:13PM 38.1169 -82.5908 250° West 413 475 40,000  Level Indianapolis Center
02:14PM 38.0786 -82.7264 250° West 410 472 40,000  Level Indianapolis Center
02:15PM 38.0322 -82.8872 250° West 414 476 40,000  Level Indianapolis Center
02:16PM 37.9933 -83.0244 250° West 415 478 40,000  Level Indianapolis Center
02:17PM 37.9519 -83.1600 249° West 414 476 40,000  Level Indianapolis Center
02:18PM 37.9122 -83.2981 250° West 418 481 40,000  Level Indianapolis Center
02:19PM 37.8714 -83.4353 249° West 416 479 40,000  Level Indianapolis Center
02:20PM 37.8231 -83.5975 249° West 422 486 40,000  Level Indianapolis Center
02:21PM 37.7822 -83.7344 249° West 419 482 40,000  Level Indianapolis Center
02:22PM 37.7406 -83.8717 249° West 420 483 40,000  Level Indianapolis Center
02:23PM 37.6997 -84.0064 249° West 411 473 40,000  Level Indianapolis Center
02:24PM 37.6586 -84.1431 249° West 415 478 40,000  Level Indianapolis Center
02:25PM 37.6103 -84.2983 249° West 409 471 40,000  Level Indianapolis Center
02:26PM 37.5697 -84.4317 249° West 406 467 40,000  Level Indianapolis Center
02:28PM 37.5278 -84.5661 249° West 412 474 40,000  Level Indianapolis Center
02:29PM 37.4875 -84.6994 249° West 407 468 40,000  Level Indianapolis Center
02:30PM 37.4456 -84.8319 248° West 407 468 40,000  Level Indianapolis Center
02:31PM 37.4044 -84.9653 249° West 407 468 40,000  Level Indianapolis Center
02:32PM 37.3550 -85.1197 248° West 409 471 40,000  Level Indianapolis Center
02:33PM 37.3142 -85.2533 249° West 409 471 40,000  Level Indianapolis Center
02:34PM 37.2711 -85.3856 248° West 409 471 40,000  Level Indianapolis Center
02:35PM 37.2250 -85.5317 248° West 411 473 40,000  Level Indianapolis Center
02:36PM 37.1828 -85.6636 248° West 407 468 40,000  Level Indianapolis Center
02:36PM 37.1622 -85.7317 249° West 404 465 40,000  Level Memphis Center
02:37PM 37.1211 -85.8589 248° West 399 459 40,000  Level Memphis Center
02:38PM 37.0781 -85.9914 248° West 399 459 40,000  Level Memphis Center
02:39PM 37.0403 -86.1053 247° West 399 459 40,000  Level Memphis Center
02:40PM 36.9986 -86.2294 247° West 404 465 40,000  Level Memphis Center
02:41PM 36.9550 -86.3642 248° West 404 465 40,000  Level Memphis Center
02:42PM 36.9133 -86.4908 248° West 404 465 40,000  Level Memphis Center
02:43PM 36.8672 -86.6200 246° West 404 465 40,000  Level Memphis Center
02:44PM 36.8211 -86.7492 246° West 404 465 40,000  Level Memphis Center
02:45PM 36.7725 -86.8783 245° Southwest 404 465 40,000  Level Memphis Center
02:46PM 36.7261 -87.0072 246° West 404 465 40,000  Level Memphis Center
02:47PM 36.6794 -87.1383 246° West 404 465 40,000  Level Memphis Center
02:48PM 36.6308 -87.2672 245° Southwest 404 465 40,000  Level Memphis Center
02:49PM 36.5800 -87.4111 246° West 410 472 40,000  Level Memphis Center
02:50PM 36.5311 -87.5447 246° West 410 472 40,000  Level Memphis Center
02:51PM 36.4936 -87.6467 245° Southwest 410 472 40,000  Level Memphis Center
02:52PM 36.4344 -87.8033 245° Southwest 410 472 40,000  Level Memphis Center
02:53PM 36.3914 -87.9336 248° West 415 478 40,000  Level Memphis Center
02:54PM 36.3353 -88.0642 242° Southwest 415 478 40,000  Level Memphis Center
02:55PM 36.2814 -88.1917 242° Southwest 420 483 40,000  Level Memphis Center
02:56PM 36.2397 -88.3189 248° West 421 484 40,000  Level Memphis Center
02:57PM 36.1878 -88.4514 244° Southwest 421 484 40,000  Level Memphis Center
02:58PM 36.1375 -88.5786 244° Southwest 421 484 40,000  Level Memphis Center
02:59PM 36.0850 -88.7081 243° Southwest 426 490 40,000  Level Memphis Center
03:00PM 36.0344 -88.8375 244° Southwest 426 490 40,000  Level Memphis Center
03:01PM 35.9839 -88.9667 244° Southwest 426 490 40,000  Level Memphis Center
03:02PM 35.9333 -89.0983 245° Southwest 426 490 40,000  Level Memphis Center
03:03PM 35.8844 -89.2297 245° Southwest 426 490 40,000  Level Memphis Center
03:04PM 35.8314 -89.3583 243° Southwest 426 490 40,000  Level Memphis Center
03:05PM 35.7803 -89.4894 244° Southwest 426 490 40,000  Level Memphis Center
03:06PM 35.7289 -89.6181 244° Southwest 426 490 40,000  Level Memphis Center
03:07PM 35.6858 -89.7436 247° West 418 481 40,000  Level Memphis Center
03:08PM 35.6364 -89.8742 245° Southwest 418 481 40,000  Level Memphis Center
03:09PM 35.5825 -90.0047 243° Southwest 423 487 40,000  Level Memphis Center
03:10PM 35.5308 -90.1350 244° Southwest 423 487 40,000  Level Memphis Center
03:11PM 35.4767 -90.2703 244° Southwest 423 487 40,000  Level Memphis Center
03:12PM 35.4286 -90.3875 243° Southwest 429 494 40,000  Level Memphis Center
03:13PM 35.3744 -90.5200 243° Southwest 434 499 40,000  Level Memphis Center
03:14PM 35.3219 -90.6497 244° Southwest 434 499 40,000  Level Memphis Center
03:15PM 35.2675 -90.7844 244° Southwest 434 499 40,000  Level Memphis Center
03:16PM 35.2128 -90.9161 243° Southwest 439 505 40,000  Level Memphis Center
03:17PM 35.1578 -91.0506 243° Southwest 439 505 40,000  Level Memphis Center
03:18PM 35.1006 -91.1844 242° Southwest 448 516 40,000  Level Memphis Center
03:19PM 35.0456 -91.3183 243° Southwest 448 516 40,000  Level Memphis Center
03:20PM 34.9836 -91.4672 243° Southwest 441 507 40,000  Level Memphis Center
03:21PM 34.9261 -91.6008 242° Southwest 446 513 40,000  Level Memphis Center
03:22PM 34.8683 -91.7342 242° Southwest 446 513 40,000  Level Memphis Center
03:23PM 34.8106 -91.8672 242° Southwest 446 513 40,000  Level Memphis Center
03:24PM 34.7544 -92.0028 243° Southwest 446 513 40,000  Level Memphis Center
03:25PM 34.7050 -92.1153 242° Southwest 446 513 40,000  Level Memphis Center
03:26PM 34.6633 -92.2608 251° West 446 513 40,000  Level Memphis Center
03:27PM 34.6236 -92.4014 251° West 446 513 40,000  Level Memphis Center
03:28PM 34.5836 -92.5417 251° West 446 513 40,000  Level Memphis Center
03:29PM 34.5456 -92.6844 252° West 446 513 40,000  Level Memphis Center
03:30PM 34.5094 -92.8297 253° West 441 507 40,000  Level Memphis Center
03:31PM 34.4689 -92.9694 251° West 441 507 40,000  Level Memphis Center
03:32PM 34.4325 -93.1144 253° West 441 507 40,000  Level Memphis Center
03:33PM 34.3936 -93.2567 252° West 447 514 40,000  Level Memphis Center
03:34PM 34.3547 -93.4014 252° West 447 514 40,000  Level Memphis Center
03:35PM 34.3158 -93.5458 252° West 447 514 40,000  Level Memphis Center
03:36PM 34.2917 -93.6331 251° West 450 518 40,000  Level Fort Worth Center
03:37PM 34.2522 -93.7753 251° West 455 524 40,000  Level Fort Worth Center
03:38PM 34.2161 -93.9050 251° West 450 518 40,000  Level Fort Worth Center
03:39PM 34.1678 -94.0425 247° West 450 518 40,000 -540 Level Fort Worth Center
03:41PM 34.0622 -94.3197 245° Southwest 455 524 38,400 -1,020 Descending Fort Worth Center
03:42PM 34.0072 -94.4594 245° Southwest 455 524 37,000 -1,500 Descending Fort Worth Center
03:43PM 33.9558 -94.5914 245° Southwest 455 524 35,500 -1,500 Descending Fort Worth Center
03:45PM 33.8492 -94.8675 245° Southwest 453 521 32,500 -1,500 Descending Fort Worth Center
03:46PM 33.7936 -95.0067 244° Southwest 453 521 31,000 -1,500 Descending Fort Worth Center
03:47PM 33.7356 -95.1506 244° Southwest 465 535 29,500 -1,740 Descending Fort Worth Center
03:48PM 33.6817 -95.2917 245° Southwest 470 541 27,600 -1,980 Descending Fort Worth Center
03:49PM 33.6275 -95.4278 244° Southwest 463 533 25,600 -2,160 Descending Fort Worth Center
03:50PM 33.5733 -95.5611 244° Southwest 457 526 23,400 -2,400 Descending Fort Worth Center
03:51PM 33.5169 -95.7017 244° Southwest 432 497 20,800 -2,400 Descending Fort Worth Center
03:52PM 33.4725 -95.8147 245° Southwest 423 487 18,700 -2,280 Descending Fort Worth Center
03:53PM 33.4219 -95.9450 245° Southwest 413 475 16,300 -2,220 Descending Fort Worth Center
03:54PM 33.3792 -96.0478 244° Southwest 397 457 14,300 -2,100 Descending Fort Worth Center
03:55PM 33.3303 -96.1653 244° Southwest 376 433 12,100 -1,920 Descending Fort Worth Center
03:56PM 33.2956 -96.2553 245° Southwest 346 398 10,500 -1,620 Descending Fort Worth Center
03:57PM 33.2506 -96.3528 241° Southwest 314 361 8,900 -1,500 Descending Fort Worth Center
03:58PM 33.2072 -96.4203 233° Southwest 298 343 7,500 -1,560 Descending Fort Worth Center
03:59PM 33.1578 -96.5053 235° Southwest 286 329 5,900 -1,260 Descending Fort Worth Center
04:00PM 33.1208 -96.5850 241° Southwest 281 323 5,000 -480 Descending Fort Worth Center
04:01PM 33.0839 -96.6672 242° Southwest 281 323 5,000  Level Fort Worth Center
04:01PM 33.0667 -96.7000 238° Southwest 275 316 5,000 -540 Level Dallas / Fort Worth TRACON
04:02PM 33.0333 -96.7833 245° Southwest 279 321 4,200 -960 Descending Dallas / Fort Worth TRACON
04:03PM 33.0000 -96.8500 239° Southwest 246 283 3,100 -780 Descending Dallas / Fort Worth TRACON
04:04PM 32.9500 -96.9000 220° Southwest 182 209 2,800 -600 Descending Dallas / Fort Worth TRACON
04:05PM 32.9167 -96.9167 203° Southwest 175 201 2,000 -780 Descending Dallas / Fort Worth TRACON
04:06PM 32.8833 -96.8833 140° Southeast 158 182 1,300 -360 Descending Dallas / Fort Worth TRACON
04:08PM 32.7547 -96.8428 165° South 152 175 1,100 -120 Descending Fort Worth Center
04:09PM 32.7903 -96.8375 North 92 106 1,100  Level Fort Worth Center
04:11PM 32.8333 -96.8500 350° North  Level FlightAware Approximate
04:18PM 32.8471 -96.8518 350° North  Level Estimated
04:19PM 32.8471 -96.8518 350° North  Level Estimated